sensor_id;sensor_type;location;lat;lon;timestamp;P1;durP1;ratioP1;P2;durP2;ratioP2
22359;SDS011;71759;52.034;4.706;2023-08-06T09:59:41;3.80;;;1.75;;
22359;SDS011;71759;52.034;4.706;2023-08-06T10:02:10;3.60;;;1.80;;
22359;SDS011;71759;52.034;4.706;2023-08-06T10:04:38;4.03;;;1.58;;
22359;SDS011;71759;52.034;4.706;2023-08-06T10:07:04;4.05;;;1.50;;
22359;SDS011;71759;52.034;4.706;2023-08-06T10:09:30;3.93;;;1.40;;
22359;SDS011;71759;52.034;4.706;2023-08-06T10:11:55;5.25;;;1.55;;
22359;SDS011;71759;52.034;4.706;2023-08-06T10:14:24;3.63;;;1.23;;
22359;SDS011;71759;52.034;4.706;2023-08-06T10:16:53;4.97;;;1.45;;
22359;SDS011;71759;52.034;4.706;2023-08-06T10:19:21;4.03;;;1.33;;
22359;SDS011;71759;52.034;4.706;2023-08-06T10:24:45;2.70;;;1.30;;
22359;SDS011;71759;52.034;4.706;2023-08-06T10:27:31;4.55;;;1.20;;
22359;SDS011;71759;52.034;4.706;2023-08-06T10:32:50;2.78;;;1.20;;
22359;SDS011;71759;52.034;4.706;2023-08-06T10:35:29;2.83;;;1.30;;
22359;SDS011;71759;52.034;4.706;2023-08-06T10:38:07;2.30;;;1.20;;
22359;SDS011;71759;52.034;4.706;2023-08-06T10:40:35;3.42;;;1.40;;
22359;SDS011;71759;52.034;4.706;2023-08-06T10:43:01;3.85;;;1.20;;
22359;SDS011;71759;52.034;4.706;2023-08-06T10:45:28;2.60;;;1.00;;
22359;SDS011;71759;52.034;4.706;2023-08-06T10:47:55;4.20;;;1.30;;
22359;SDS011;71759;52.034;4.706;2023-08-06T10:50:22;2.28;;;1.00;;
22359;SDS011;71759;52.034;4.706;2023-08-06T10:52:48;4.50;;;1.70;;
22359;SDS011;71759;52.034;4.706;2023-08-06T10:55:14;2.00;;;0.80;;
22359;SDS011;71759;52.034;4.706;2023-08-06T10:57:46;3.00;;;1.20;;
22359;SDS011;71759;52.034;4.706;2023-08-06T11:00:12;3.50;;;1.10;;
22359;SDS011;71759;52.034;4.706;2023-08-06T11:02:39;1.93;;;0.97;;
22359;SDS011;71759;52.034;4.706;2023-08-06T11:05:08;3.40;;;0.90;;
22359;SDS011;71759;52.034;4.706;2023-08-06T11:07:34;2.70;;;0.90;;
22359;SDS011;71759;52.034;4.706;2023-08-06T11:10:01;1.17;;;0.70;;
22359;SDS011;71759;52.034;4.706;2023-08-06T11:12:32;4.72;;;1.08;;
22359;SDS011;71759;52.034;4.706;2023-08-06T11:14:58;2.97;;;0.80;;
22359;SDS011;71759;52.034;4.706;2023-08-06T11:17:24;1.20;;;0.70;;
22359;SDS011;71759;52.034;4.706;2023-08-06T11:19:52;2.57;;;0.80;;
22359;SDS011;71759;52.034;4.706;2023-08-06T11:22:19;1.63;;;0.80;;
22359;SDS011;71759;52.034;4.706;2023-08-06T11:24:45;2.83;;;1.00;;
22359;SDS011;71759;52.034;4.706;2023-08-06T11:27:14;2.60;;;1.20;;
22359;SDS011;71759;52.034;4.706;2023-08-06T11:29:40;2.67;;;1.00;;
22359;SDS011;71759;52.034;4.706;2023-08-06T11:32:07;2.72;;;1.20;;
22359;SDS011;71759;52.034;4.706;2023-08-06T11:34:33;2.65;;;0.90;;
22359;SDS011;71759;52.034;4.706;2023-08-06T11:36:59;2.50;;;1.10;;
22359;SDS011;71759;52.034;4.706;2023-08-06T11:39:25;3.90;;;1.30;;
22359;SDS011;71759;52.034;4.706;2023-08-06T11:41:51;2.00;;;0.90;;
22359;SDS011;71759;52.034;4.706;2023-08-06T11:44:18;3.90;;;1.00;;
22359;SDS011;71759;52.034;4.706;2023-08-06T11:46:54;1.73;;;0.83;;
22359;SDS011;71759;52.034;4.706;2023-08-06T11:49:36;2.87;;;1.13;;
22359;SDS011;71759;52.034;4.706;2023-08-06T11:52:13;2.13;;;1.00;;
22359;SDS011;71759;52.034;4.706;2023-08-06T11:54:45;2.50;;;1.00;;
22359;SDS011;71759;52.034;4.706;2023-08-06T11:57:32;3.30;;;1.00;;
22359;SDS011;71759;52.034;4.706;2023-08-06T12:00:10;2.88;;;0.80;;
22359;SDS011;71759;52.034;4.706;2023-08-06T12:02:39;1.92;;;0.80;;
22359;SDS011;71759;52.034;4.706;2023-08-06T12:07:47;2.65;;;0.80;;
22359;SDS011;71759;52.034;4.706;2023-08-06T12:10:14;1.92;;;0.60;;
22359;SDS011;71759;52.034;4.706;2023-08-06T12:12:40;2.83;;;0.90;;
22359;SDS011;71759;52.034;4.706;2023-08-06T12:15:07;1.60;;;0.70;;
22359;SDS011;71759;52.034;4.706;2023-08-06T12:17:34;3.50;;;0.70;;
22359;SDS011;71759;52.034;4.706;2023-08-06T12:20:00;3.25;;;0.70;;
22359;SDS011;71759;52.034;4.706;2023-08-06T12:22:26;2.65;;;0.63;;
22359;SDS011;71759;52.034;4.706;2023-08-06T12:24:52;2.33;;;0.70;;
22359;SDS011;71759;52.034;4.706;2023-08-06T12:27:17;1.20;;;0.60;;
22359;SDS011;71759;52.034;4.706;2023-08-06T12:29:52;2.57;;;0.70;;
22359;SDS011;71759;52.034;4.706;2023-08-06T12:32:17;2.50;;;0.80;;
22359;SDS011;71759;52.034;4.706;2023-08-06T12:42:01;1.53;;;0.67;;
22359;SDS011;71759;52.034;4.706;2023-08-06T12:44:28;0.77;;;0.50;;
22359;SDS011;71759;52.034;4.706;2023-08-06T12:46:54;1.03;;;0.40;;
22359;SDS011;71759;52.034;4.706;2023-08-06T12:49:20;1.20;;;0.50;;
22359;SDS011;71759;52.034;4.706;2023-08-06T12:51:46;2.37;;;0.60;;
22359;SDS011;71759;52.034;4.706;2023-08-06T12:54:12;2.70;;;0.40;;
22359;SDS011;71759;52.034;4.706;2023-08-06T12:56:38;0.43;;;0.37;;
22359;SDS011;71759;52.034;4.706;2023-08-06T12:59:03;4.00;;;0.70;;
22359;SDS011;71759;52.034;4.706;2023-08-06T13:01:29;2.43;;;0.57;;
22359;SDS011;71759;52.034;4.706;2023-08-06T13:03:54;1.03;;;0.40;;
22359;SDS011;71759;52.034;4.706;2023-08-06T13:06:20;1.10;;;0.50;;
22359;SDS011;71759;52.034;4.706;2023-08-06T13:08:45;1.00;;;0.40;;
22359;SDS011;71759;52.034;4.706;2023-08-06T13:11:11;1.73;;;0.43;;
22359;SDS011;71759;52.034;4.706;2023-08-06T13:13:37;1.60;;;0.40;;
22359;SDS011;71759;52.034;4.706;2023-08-06T13:16:02;1.60;;;0.50;;
22359;SDS011;71759;52.034;4.706;2023-08-06T13:18:28;3.47;;;0.40;;
22359;SDS011;71759;52.034;4.706;2023-08-06T13:20:54;2.73;;;0.80;;
22359;SDS011;71759;52.034;4.706;2023-08-06T13:23:20;4.93;;;0.80;;
22359;SDS011;71759;52.034;4.706;2023-08-06T13:25:46;2.57;;;0.90;;
22359;SDS011;71759;52.034;4.706;2023-08-06T13:28:11;2.80;;;0.50;;
22359;SDS011;71759;52.034;4.706;2023-08-06T13:30:38;1.90;;;0.60;;
22359;SDS011;71759;52.034;4.706;2023-08-06T13:33:07;4.20;;;0.73;;
22359;SDS011;71759;52.034;4.706;2023-08-06T13:35:33;3.47;;;0.70;;
22359;SDS011;71759;52.034;4.706;2023-08-06T13:37:59;4.30;;;0.73;;
22359;SDS011;71759;52.034;4.706;2023-08-06T13:40:27;2.80;;;0.70;;
22359;SDS011;71759;52.034;4.706;2023-08-06T13:42:53;1.37;;;0.60;;
22359;SDS011;71759;52.034;4.706;2023-08-06T13:45:19;1.90;;;0.67;;
22359;SDS011;71759;52.034;4.706;2023-08-06T13:47:44;3.00;;;0.90;;
22359;SDS011;71759;52.034;4.706;2023-08-06T13:50:10;1.87;;;0.70;;
22359;SDS011;71759;52.034;4.706;2023-08-06T13:52:35;2.93;;;0.73;;
22359;SDS011;71759;52.034;4.706;2023-08-06T13:55:01;3.20;;;0.73;;
22359;SDS011;71759;52.034;4.706;2023-08-06T13:57:28;1.67;;;0.90;;
22359;SDS011;71759;52.034;4.706;2023-08-06T13:59:54;2.00;;;0.90;;
22359;SDS011;71759;52.034;4.706;2023-08-06T14:02:20;2.80;;;0.80;;
22359;SDS011;71759;52.034;4.706;2023-08-06T14:04:45;6.70;;;1.00;;
22359;SDS011;71759;52.034;4.706;2023-08-06T14:07:11;9.87;;;1.27;;
22359;SDS011;71759;52.034;4.706;2023-08-06T14:09:36;6.33;;;1.10;;
22359;SDS011;71759;52.034;4.706;2023-08-06T14:12:02;6.43;;;1.00;;
22359;SDS011;71759;52.034;4.706;2023-08-06T14:14:28;7.55;;;1.00;;
22359;SDS011;71759;52.034;4.706;2023-08-06T14:16:53;7.17;;;0.90;;
22359;SDS011;71759;52.034;4.706;2023-08-06T14:19:20;7.90;;;1.10;;
22359;SDS011;71759;52.034;4.706;2023-08-06T14:21:45;6.37;;;1.10;;
22359;SDS011;71759;52.034;4.706;2023-08-06T14:24:11;8.00;;;1.10;;
22359;SDS011;71759;52.034;4.706;2023-08-06T14:26:37;6.43;;;1.00;;
22359;SDS011;71759;52.034;4.706;2023-08-06T14:29:02;7.43;;;1.30;;
22359;SDS011;71759;52.034;4.706;2023-08-06T14:31:28;11.73;;;1.47;;
22359;SDS011;71759;52.034;4.706;2023-08-06T14:33:54;9.18;;;1.30;;
22359;SDS011;71759;52.034;4.706;2023-08-06T14:36:19;6.93;;;1.43;;
22359;SDS011;71759;52.034;4.706;2023-08-06T14:38:45;6.47;;;1.20;;
22359;SDS011;71759;52.034;4.706;2023-08-06T14:41:10;7.60;;;1.17;;
22359;SDS011;71759;52.034;4.706;2023-08-06T14:43:36;6.13;;;0.98;;
22359;SDS011;71759;52.034;4.706;2023-08-06T14:46:02;7.17;;;1.20;;
22359;SDS011;71759;52.034;4.706;2023-08-06T14:48:28;6.80;;;1.38;;
22359;SDS011;71759;52.034;4.706;2023-08-06T14:50:54;7.87;;;1.20;;
22359;SDS011;71759;52.034;4.706;2023-08-06T14:53:19;5.28;;;0.93;;
22359;SDS011;71759;52.034;4.706;2023-08-06T14:55:45;7.40;;;1.20;;
22359;SDS011;71759;52.034;4.706;2023-08-06T14:58:10;3.70;;;0.90;;
22359;SDS011;71759;52.034;4.706;2023-08-06T15:00:36;7.43;;;1.13;;
22359;SDS011;71759;52.034;4.706;2023-08-06T15:03:02;7.63;;;1.10;;
22359;SDS011;71759;52.034;4.706;2023-08-06T15:05:27;7.77;;;1.10;;
22359;SDS011;71759;52.034;4.706;2023-08-06T15:07:53;8.80;;;1.40;;
22359;SDS011;71759;52.034;4.706;2023-08-06T15:10:18;6.80;;;1.33;;
22359;SDS011;71759;52.034;4.706;2023-08-06T15:12:44;6.97;;;1.30;;
22359;SDS011;71759;52.034;4.706;2023-08-06T15:15:10;7.03;;;1.07;;
22359;SDS011;71759;52.034;4.706;2023-08-06T15:17:36;7.93;;;1.27;;
22359;SDS011;71759;52.034;4.706;2023-08-06T15:20:01;6.23;;;0.90;;
22359;SDS011;71759;52.034;4.706;2023-08-06T15:22:28;5.73;;;0.80;;
22359;SDS011;71759;52.034;4.706;2023-08-06T15:24:56;9.97;;;1.50;;
22359;SDS011;71759;52.034;4.706;2023-08-06T15:27:22;9.20;;;1.23;;
22359;SDS011;71759;52.034;4.706;2023-08-06T15:29:48;7.23;;;1.20;;
22359;SDS011;71759;52.034;4.706;2023-08-06T15:32:14;8.97;;;1.30;;
22359;SDS011;71759;52.034;4.706;2023-08-06T15:34:40;9.03;;;1.20;;
22359;SDS011;71759;52.034;4.706;2023-08-06T15:37:05;13.67;;;1.27;;
22359;SDS011;71759;52.034;4.706;2023-08-06T15:39:32;10.57;;;1.53;;
22359;SDS011;71759;52.034;4.706;2023-08-06T15:41:58;14.77;;;1.67;;
22359;SDS011;71759;52.034;4.706;2023-08-06T15:44:23;16.00;;;1.50;;
22359;SDS011;71759;52.034;4.706;2023-08-06T15:46:50;13.43;;;1.40;;
22359;SDS011;71759;52.034;4.706;2023-08-06T15:49:15;12.83;;;1.77;;
22359;SDS011;71759;52.034;4.706;2023-08-06T15:51:41;11.90;;;1.70;;
22359;SDS011;71759;52.034;4.706;2023-08-06T15:54:07;13.27;;;1.97;;
22359;SDS011;71759;52.034;4.706;2023-08-06T15:56:32;16.50;;;2.08;;
22359;SDS011;71759;52.034;4.706;2023-08-06T15:59:20;14.90;;;2.05;;
22359;SDS011;71759;52.034;4.706;2023-08-06T16:01:50;15.05;;;2.42;;
22359;SDS011;71759;52.034;4.706;2023-08-06T16:04:16;14.43;;;2.83;;
22359;SDS011;71759;52.034;4.706;2023-08-06T16:06:42;18.10;;;2.28;;
22359;SDS011;71759;52.034;4.706;2023-08-06T16:09:08;16.83;;;2.13;;
22359;SDS011;71759;52.034;4.706;2023-08-06T16:11:33;11.40;;;2.00;;
22359;SDS011;71759;52.034;4.706;2023-08-06T16:13:59;10.68;;;2.00;;
